Mountain Home, Arkansas
Current Conditions -  °F | °C
As of 8:53 PM on Wednesday 22 Oct 2014 (Local Time) from KBPK Reporting Station
Clear Clear  
Wind Chill: 12°   Ceiling: Unl
Heat Index: 12°   Visibility: 9mi
Dew Point:   Wind: 7mph
Humidity: 75%   Direction: 110°ESE
Pressure: 30.2"   Gusts: NA
Location:  36.34°N, 92.38°W
Report Text: KBPK 230153Z AUTO 11006KT 9SM CLR 12/08 A3020 RMK AO2 SLP225 T01220078
Loading
Personal Weather Stations






























Interactive Weather Map
Tropical Storm Tracking
New forecast layout! Learn more

10-Day Weather Forecast

Advertisements
Track Severe Weather on mobile